sensor_id;sensor_type;location;lat;lon;timestamp;temperature;humidity
1383;DHT22;685;47.196;11.880;2023-03-02T00:01:30;1.20;99.90
1383;DHT22;685;47.196;11.880;2023-03-02T00:04:02;1.30;99.90
1383;DHT22;685;47.196;11.880;2023-03-02T00:06:30;0.90;99.90
1383;DHT22;685;47.196;11.880;2023-03-02T00:08:59;0.80;99.90
1383;DHT22;685;47.196;11.880;2023-03-02T00:11:26;0.80;99.90
1383;DHT22;685;47.196;11.880;2023-03-02T00:13:54;1.20;99.90
1383;DHT22;685;47.196;11.880;2023-03-02T00:16:21;1.10;99.90
1383;DHT22;685;47.196;11.880;2023-03-02T00:18:48;1.10;99.90
1383;DHT22;685;47.196;11.880;2023-03-02T00:21:16;1.30;99.90
1383;DHT22;685;47.196;11.880;2023-03-02T00:23:43;1.40;99.90
1383;DHT22;685;47.196;11.880;2023-03-02T00:26:10;1.40;99.90
1383;DHT22;685;47.196;11.880;2023-03-02T00:28:37;1.20;99.90
1383;DHT22;685;47.196;11.880;2023-03-02T00:31:05;1.40;99.90
1383;DHT22;685;47.196;11.880;2023-03-02T00:33:32;1.60;99.90
1383;DHT22;685;47.196;11.880;2023-03-02T00:35:59;1.70;99.90
1383;DHT22;685;47.196;11.880;2023-03-02T00:38:27;1.70;99.90
1383;DHT22;685;47.196;11.880;2023-03-02T00:40:54;1.50;99.90
1383;DHT22;685;47.196;11.880;2023-03-02T00:43:21;1.40;99.90
1383;DHT22;685;47.196;11.880;2023-03-02T00:45:52;1.50;99.90
1383;DHT22;685;47.196;11.880;2023-03-02T00:48:19;1.60;99.90
1383;DHT22;685;47.196;11.880;2023-03-02T00:50:46;1.60;99.90
1383;DHT22;685;47.196;11.880;2023-03-02T00:53:13;1.70;99.90
1383;DHT22;685;47.196;11.880;2023-03-02T00:55:41;1.60;99.90
1383;DHT22;685;47.196;11.880;2023-03-02T00:58:08;1.50;99.90
1383;DHT22;685;47.196;11.880;2023-03-02T01:00:36;1.40;99.90
1383;DHT22;685;47.196;11.880;2023-03-02T01:03:03;1.50;99.90
1383;DHT22;685;47.196;11.880;2023-03-02T01:05:30;1.50;99.90
1383;DHT22;685;47.196;11.880;2023-03-02T01:07:56;1.60;99.90
1383;DHT22;685;47.196;11.880;2023-03-02T01:10:23;1.70;99.90
1383;DHT22;685;47.196;11.880;2023-03-02T01:12:52;1.40;99.90
1383;DHT22;685;47.196;11.880;2023-03-02T01:15:19;1.10;99.90
1383;DHT22;685;47.196;11.880;2023-03-02T01:17:45;1.20;99.90
1383;DHT22;685;47.196;11.880;2023-03-02T01:20:12;1.50;99.90
1383;DHT22;685;47.196;11.880;2023-03-02T01:22:39;1.40;99.90
1383;DHT22;685;47.196;11.880;2023-03-02T01:25:08;1.00;99.90
1383;DHT22;685;47.196;11.880;2023-03-02T01:27:35;0.70;99.90
1383;DHT22;685;47.196;11.880;2023-03-02T01:30:05;1.00;99.90
1383;DHT22;685;47.196;11.880;2023-03-02T01:32:32;1.30;99.90
1383;DHT22;685;47.196;11.880;2023-03-02T01:34:59;1.10;99.90
1383;DHT22;685;47.196;11.880;2023-03-02T01:37:25;0.50;99.90
1383;DHT22;685;47.196;11.880;2023-03-02T01:39:52;0.30;99.90
1383;DHT22;685;47.196;11.880;2023-03-02T01:44:48;0.10;99.90
1383;DHT22;685;47.196;11.880;2023-03-02T01:47:20;0.10;99.90
1383;DHT22;685;47.196;11.880;2023-03-02T01:49:50;0.40;99.90
1383;DHT22;685;47.196;11.880;2023-03-02T01:52:19;0.60;99.90
1383;DHT22;685;47.196;11.880;2023-03-02T01:54:49;0.90;99.90
1383;DHT22;685;47.196;11.880;2023-03-02T01:57:21;0.90;99.90
1383;DHT22;685;47.196;11.880;2023-03-02T01:59:53;0.70;99.90
1383;DHT22;685;47.196;11.880;2023-03-02T02:02:23;0.30;99.90
1383;DHT22;685;47.196;11.880;2023-03-02T02:04:50;0.30;99.90
1383;DHT22;685;47.196;11.880;2023-03-02T02:07:18;0.60;99.90
1383;DHT22;685;47.196;11.880;2023-03-02T02:09:46;0.90;99.90
1383;DHT22;685;47.196;11.880;2023-03-02T02:12:14;1.20;99.90
1383;DHT22;685;47.196;11.880;2023-03-02T02:14:42;1.20;99.90
1383;DHT22;685;47.196;11.880;2023-03-02T02:17:10;1.20;99.90
1383;DHT22;685;47.196;11.880;2023-03-02T02:19:46;1.10;99.90
1383;DHT22;685;47.196;11.880;2023-03-02T02:22:23;1.20;99.90
1383;DHT22;685;47.196;11.880;2023-03-02T02:24:55;1.10;99.90
1383;DHT22;685;47.196;11.880;2023-03-02T02:27:25;1.10;99.90
1383;DHT22;685;47.196;11.880;2023-03-02T02:29:55;1.20;99.90
1383;DHT22;685;47.196;11.880;2023-03-02T02:32:24;1.20;99.90
1383;DHT22;685;47.196;11.880;2023-03-02T02:34:57;1.20;99.90
1383;DHT22;685;47.196;11.880;2023-03-02T02:37:27;1.10;99.90
1383;DHT22;685;47.196;11.880;2023-03-02T02:39:56;1.10;99.90
1383;DHT22;685;47.196;11.880;2023-03-02T02:42:28;1.20;99.90
1383;DHT22;685;47.196;11.880;2023-03-02T02:45:00;1.20;99.90
1383;DHT22;685;47.196;11.880;2023-03-02T02:47:27;1.20;99.90
1383;DHT22;685;47.196;11.880;2023-03-02T02:49:55;1.20;99.90
1383;DHT22;685;47.196;11.880;2023-03-02T02:52:23;1.20;99.90
1383;DHT22;685;47.196;11.880;2023-03-02T02:54:52;1.20;99.90
1383;DHT22;685;47.196;11.880;2023-03-02T02:57:22;1.20;99.90
1383;DHT22;685;47.196;11.880;2023-03-02T02:59:54;0.60;99.90
1383;DHT22;685;47.196;11.880;2023-03-02T03:02:23;-0.20;99.90
1383;DHT22;685;47.196;11.880;2023-03-02T03:04:50;-0.50;99.90
1383;DHT22;685;47.196;11.880;2023-03-02T03:07:20;-0.40;99.90
1383;DHT22;685;47.196;11.880;2023-03-02T03:09:52;-0.20;99.90
1383;DHT22;685;47.196;11.880;2023-03-02T03:12:22;-0.10;99.90
1383;DHT22;685;47.196;11.880;2023-03-02T03:14:52;0.10;99.90
1383;DHT22;685;47.196;11.880;2023-03-02T03:17:19;-0.10;99.90
1383;DHT22;685;47.196;11.880;2023-03-02T03:19:46;-0.20;99.90
1383;DHT22;685;47.196;11.880;2023-03-02T03:22:15;0.00;99.90
1383;DHT22;685;47.196;11.880;2023-03-02T03:24:43;0.20;99.90
1383;DHT22;685;47.196;11.880;2023-03-02T03:27:13;-0.40;99.90
1383;DHT22;685;47.196;11.880;2023-03-02T03:29:44;-0.40;99.90
1383;DHT22;685;47.196;11.880;2023-03-02T03:32:14;-0.40;99.90
1383;DHT22;685;47.196;11.880;2023-03-02T03:34:40;-0.40;99.90
1383;DHT22;685;47.196;11.880;2023-03-02T03:39:36;-0.50;99.90
1383;DHT22;685;47.196;11.880;2023-03-02T03:42:03;-0.30;99.90
1383;DHT22;685;47.196;11.880;2023-03-02T03:44:31;0.10;99.90
1383;DHT22;685;47.196;11.880;2023-03-02T03:46:58;0.40;99.90
1383;DHT22;685;47.196;11.880;2023-03-02T03:49:26;0.50;99.90
1383;DHT22;685;47.196;11.880;2023-03-02T03:51:53;0.70;99.90
1383;DHT22;685;47.196;11.880;2023-03-02T03:54:20;0.80;99.90
1383;DHT22;685;47.196;11.880;2023-03-02T03:56:48;0.90;99.90
1383;DHT22;685;47.196;11.880;2023-03-02T03:59:18;0.90;99.90
1383;DHT22;685;47.196;11.880;2023-03-02T04:01:47;0.80;99.90
1383;DHT22;685;47.196;11.880;2023-03-02T04:04:21;0.90;99.90
1383;DHT22;685;47.196;11.880;2023-03-02T04:06:50;0.80;99.90
1383;DHT22;685;47.196;11.880;2023-03-02T04:09:18;0.70;99.90
1383;DHT22;685;47.196;11.880;2023-03-02T04:11:46;0.80;99.90
1383;DHT22;685;47.196;11.880;2023-03-02T04:14:14;0.90;99.90
1383;DHT22;685;47.196;11.880;2023-03-02T04:16:43;0.90;99.90
1383;DHT22;685;47.196;11.880;2023-03-02T04:19:10;0.80;99.90
1383;DHT22;685;47.196;11.880;2023-03-02T04:21:38;0.90;99.90
1383;DHT22;685;47.196;11.880;2023-03-02T04:24:08;0.80;99.90
1383;DHT22;685;47.196;11.880;2023-03-02T04:26:36;0.70;99.90
1383;DHT22;685;47.196;11.880;2023-03-02T04:29:04;0.80;99.90
1383;DHT22;685;47.196;11.880;2023-03-02T04:31:31;0.50;99.90
1383;DHT22;685;47.196;11.880;2023-03-02T04:33:58;0.60;99.90
1383;DHT22;685;47.196;11.880;2023-03-02T04:36:25;0.70;99.90
1383;DHT22;685;47.196;11.880;2023-03-02T04:38:52;0.30;99.90
1383;DHT22;685;47.196;11.880;2023-03-02T04:41:21;-0.10;99.90
1383;DHT22;685;47.196;11.880;2023-03-02T04:43:48;0.00;99.90
1383;DHT22;685;47.196;11.880;2023-03-02T04:46:20;0.10;99.90
1383;DHT22;685;47.196;11.880;2023-03-02T04:48:47;-0.10;99.90
1383;DHT22;685;47.196;11.880;2023-03-02T04:51:16;-0.10;99.90
1383;DHT22;685;47.196;11.880;2023-03-02T04:53:48;0.10;99.90
1383;DHT22;685;47.196;11.880;2023-03-02T04:56:15;0.40;99.90
1383;DHT22;685;47.196;11.880;2023-03-02T04:58:43;-0.10;99.90
1383;DHT22;685;47.196;11.880;2023-03-02T05:01:12;-0.40;99.90
1383;DHT22;685;47.196;11.880;2023-03-02T05:03:39;-0.40;99.90
1383;DHT22;685;47.196;11.880;2023-03-02T05:06:06;-0.50;99.90
1383;DHT22;685;47.196;11.880;2023-03-02T05:08:33;-0.60;99.90
1383;DHT22;685;47.196;11.880;2023-03-02T05:11:00;-0.40;99.90
1383;DHT22;685;47.196;11.880;2023-03-02T05:13:27;-0.30;99.90
1383;DHT22;685;47.196;11.880;2023-03-02T05:15:55;-0.20;99.90
1383;DHT22;685;47.196;11.880;2023-03-02T05:18:23;0.10;99.90
1383;DHT22;685;47.196;11.880;2023-03-02T05:20:50;-0.20;99.90
1383;DHT22;685;47.196;11.880;2023-03-02T05:23:21;-0.10;99.90
1383;DHT22;685;47.196;11.880;2023-03-02T05:25:50;0.30;99.90
1383;DHT22;685;47.196;11.880;2023-03-02T05:28:17;0.50;99.90
1383;DHT22;685;47.196;11.880;2023-03-02T05:30:44;0.60;99.90
1383;DHT22;685;47.196;11.880;2023-03-02T05:33:13;0.60;99.90
1383;DHT22;685;47.196;11.880;2023-03-02T05:35:40;0.50;99.90
1383;DHT22;685;47.196;11.880;2023-03-02T05:38:08;0.50;99.90
1383;DHT22;685;47.196;11.880;2023-03-02T05:40:35;0.60;99.90
1383;DHT22;685;47.196;11.880;2023-03-02T05:43:02;0.70;99.90
1383;DHT22;685;47.196;11.880;2023-03-02T05:45:31;0.70;99.90
1383;DHT22;685;47.196;11.880;2023-03-02T05:47:58;0.60;99.90
1383;DHT22;685;47.196;11.880;2023-03-02T05:50:26;-0.10;99.90
1383;DHT22;685;47.196;11.880;2023-03-02T05:52:53;0.00;99.90
1383;DHT22;685;47.196;11.880;2023-03-02T05:55:20;0.30;99.90
1383;DHT22;685;47.196;11.880;2023-03-02T05:57:47;0.50;99.90
1383;DHT22;685;47.196;11.880;2023-03-02T06:00:16;0.60;99.90
1383;DHT22;685;47.196;11.880;2023-03-02T06:02:43;0.70;99.90
1383;DHT22;685;47.196;11.880;2023-03-02T06:05:13;0.60;99.90
1383;DHT22;685;47.196;11.880;2023-03-02T06:07:41;0.40;99.90
1383;DHT22;685;47.196;11.880;2023-03-02T06:10:09;0.20;99.90
1383;DHT22;685;47.196;11.880;2023-03-02T06:12:37;0.20;99.90
1383;DHT22;685;47.196;11.880;2023-03-02T06:15:05;0.10;99.90
1383;DHT22;685;47.196;11.880;2023-03-02T06:17:33;0.40;99.90
1383;DHT22;685;47.196;11.880;2023-03-02T06:20:00;0.60;99.90
1383;DHT22;685;47.196;11.880;2023-03-02T06:22:28;0.70;99.90
1383;DHT22;685;47.196;11.880;2023-03-02T06:24:56;0.70;99.90
1383;DHT22;685;47.196;11.880;2023-03-02T06:27:23;0.60;99.90
1383;DHT22;685;47.196;11.880;2023-03-02T06:29:50;0.40;99.90
1383;DHT22;685;47.196;11.880;2023-03-02T06:32:17;0.50;99.90
1383;DHT22;685;47.196;11.880;2023-03-02T06:34:44;0.60;99.90
1383;DHT22;685;47.196;11.880;2023-03-02T06:37:11;0.20;99.90
1383;DHT22;685;47.196;11.880;2023-03-02T06:39:38;0.10;99.90
1383;DHT22;685;47.196;11.880;2023-03-02T06:42:06;0.20;99.90
1383;DHT22;685;47.196;11.880;2023-03-02T06:44:33;0.20;99.90
1383;DHT22;685;47.196;11.880;2023-03-02T06:47:00;0.40;99.90
1383;DHT22;685;47.196;11.880;2023-03-02T06:49:27;0.60;99.90
1383;DHT22;685;47.196;11.880;2023-03-02T06:51:54;0.70;99.90
1383;DHT22;685;47.196;11.880;2023-03-02T06:54:21;0.80;99.90
1383;DHT22;685;47.196;11.880;2023-03-02T06:56:48;0.90;99.90
1383;DHT22;685;47.196;11.880;2023-03-02T06:59:16;0.90;99.90
1383;DHT22;685;47.196;11.880;2023-03-02T07:01:43;0.90;99.90
1383;DHT22;685;47.196;11.880;2023-03-02T07:04:11;1.00;99.90
1383;DHT22;685;47.196;11.880;2023-03-02T07:06:38;1.10;99.90
1383;DHT22;685;47.196;11.880;2023-03-02T07:09:05;1.00;99.90
1383;DHT22;685;47.196;11.880;2023-03-02T07:11:32;1.00;99.90
1383;DHT22;685;47.196;11.880;2023-03-02T07:13:59;1.00;99.90
1383;DHT22;685;47.196;11.880;2023-03-02T07:16:28;1.00;99.90
1383;DHT22;685;47.196;11.880;2023-03-02T07:18:55;1.10;99.90
1383;DHT22;685;47.196;11.880;2023-03-02T07:21:22;1.10;99.90
1383;DHT22;685;47.196;11.880;2023-03-02T07:23:49;1.20;99.90
1383;DHT22;685;47.196;11.880;2023-03-02T07:26:16;1.10;99.90
1383;DHT22;685;47.196;11.880;2023-03-02T07:28:43;1.10;99.90
1383;DHT22;685;47.196;11.880;2023-03-02T07:31:10;1.00;99.90
1383;DHT22;685;47.196;11.880;2023-03-02T07:33:39;1.00;99.90
1383;DHT22;685;47.196;11.880;2023-03-02T07:36:07;0.80;99.90
1383;DHT22;685;47.196;11.880;2023-03-02T07:38:35;0.90;99.90
1383;DHT22;685;47.196;11.880;2023-03-02T07:41:05;1.00;99.90
1383;DHT22;685;47.196;11.880;2023-03-02T07:43:32;1.10;99.90
1383;DHT22;685;47.196;11.880;2023-03-02T07:46:01;1.30;99.90
1383;DHT22;685;47.196;11.880;2023-03-02T07:48:28;1.30;99.90
1383;DHT22;685;47.196;11.880;2023-03-02T07:50:58;1.10;99.90
1383;DHT22;685;47.196;11.880;2023-03-02T07:53:25;0.80;99.90
1383;DHT22;685;47.196;11.880;2023-03-02T07:55:51;0.80;99.90
1383;DHT22;685;47.196;11.880;2023-03-02T07:58:18;1.00;99.90
1383;DHT22;685;47.196;11.880;2023-03-02T08:00:46;0.70;99.90
1383;DHT22;685;47.196;11.880;2023-03-02T08:03:12;0.80;99.90
1383;DHT22;685;47.196;11.880;2023-03-02T08:05:39;0.90;99.90
1383;DHT22;685;47.196;11.880;2023-03-02T08:08:08;0.90;99.90
1383;DHT22;685;47.196;11.880;2023-03-02T08:10:35;0.90;99.90
1383;DHT22;685;47.196;11.880;2023-03-02T08:13:02;0.90;99.90
1383;DHT22;685;47.196;11.880;2023-03-02T08:15:29;1.10;99.90
1383;DHT22;685;47.196;11.880;2023-03-02T08:17:56;1.10;99.90
1383;DHT22;685;47.196;11.880;2023-03-02T08:20:23;1.10;99.90
1383;DHT22;685;47.196;11.880;2023-03-02T08:22:50;1.20;99.90
1383;DHT22;685;47.196;11.880;2023-03-02T08:25:18;1.40;99.90
1383;DHT22;685;47.196;11.880;2023-03-02T08:27:45;1.60;99.90
1383;DHT22;685;47.196;11.880;2023-03-02T08:30:12;1.70;99.90
1383;DHT22;685;47.196;11.880;2023-03-02T08:32:40;1.70;99.90
1383;DHT22;685;47.196;11.880;2023-03-02T08:35:07;1.50;99.90
1383;DHT22;685;47.196;11.880;2023-03-02T08:37:34;1.70;99.90
1383;DHT22;685;47.196;11.880;2023-03-02T08:40:01;1.70;99.90
1383;DHT22;685;47.196;11.880;2023-03-02T08:42:29;1.60;99.90
1383;DHT22;685;47.196;11.880;2023-03-02T08:44:56;1.60;99.90
1383;DHT22;685;47.196;11.880;2023-03-02T08:47:23;1.50;99.90
1383;DHT22;685;47.196;11.880;2023-03-02T08:49:50;1.60;99.90
1383;DHT22;685;47.196;11.880;2023-03-02T08:52:17;1.60;99.90
1383;DHT22;685;47.196;11.880;2023-03-02T08:54:44;1.70;99.90
1383;DHT22;685;47.196;11.880;2023-03-02T08:57:11;1.70;99.90
1383;DHT22;685;47.196;11.880;2023-03-02T08:59:39;1.80;99.90
1383;DHT22;685;47.196;11.880;2023-03-02T09:02:09;2.00;99.90
1383;DHT22;685;47.196;11.880;2023-03-02T09:04:37;2.00;99.90
1383;DHT22;685;47.196;11.880;2023-03-02T09:07:04;2.00;99.90
1383;DHT22;685;47.196;11.880;2023-03-02T09:09:31;2.10;99.90
1383;DHT22;685;47.196;11.880;2023-03-02T09:11:57;2.20;99.90
1383;DHT22;685;47.196;11.880;2023-03-02T09:14:24;2.20;99.90
1383;DHT22;685;47.196;11.880;2023-03-02T09:16:53;2.40;99.90
1383;DHT22;685;47.196;11.880;2023-03-02T09:19:20;2.40;99.90
1383;DHT22;685;47.196;11.880;2023-03-02T09:21:47;2.50;99.90
1383;DHT22;685;47.196;11.880;2023-03-02T09:24:14;2.60;99.90
1383;DHT22;685;47.196;11.880;2023-03-02T09:26:41;2.50;99.90
1383;DHT22;685;47.196;11.880;2023-03-02T09:29:08;2.60;99.90
1383;DHT22;685;47.196;11.880;2023-03-02T09:31:36;2.70;99.90
1383;DHT22;685;47.196;11.880;2023-03-02T09:34:04;2.80;99.90
1383;DHT22;685;47.196;11.880;2023-03-02T09:36:31;2.90;99.90
1383;DHT22;685;47.196;11.880;2023-03-02T09:38:59;3.10;99.90
1383;DHT22;685;47.196;11.880;2023-03-02T09:42:05;3.20;99.90
1383;DHT22;685;47.196;11.880;2023-03-02T09:44:54;3.40;99.90
1383;DHT22;685;47.196;11.880;2023-03-02T09:47:27;3.30;99.90
1383;DHT22;685;47.196;11.880;2023-03-02T09:50:07;3.40;99.90
1383;DHT22;685;47.196;11.880;2023-03-02T09:52:39;3.50;99.90
1383;DHT22;685;47.196;11.880;2023-03-02T09:55:14;3.50;99.90
1383;DHT22;685;47.196;11.880;2023-03-02T09:57:42;3.60;99.90
1383;DHT22;685;47.196;11.880;2023-03-02T10:00:12;3.60;99.90
1383;DHT22;685;47.196;11.880;2023-03-02T10:02:46;3.70;99.90
1383;DHT22;685;47.196;11.880;2023-03-02T10:05:17;3.80;99.90
1383;DHT22;685;47.196;11.880;2023-03-02T10:07:46;3.90;99.90
1383;DHT22;685;47.196;11.880;2023-03-02T10:10:23;4.00;99.90
1383;DHT22;685;47.196;11.880;2023-03-02T10:13:01;4.10;99.90
1383;DHT22;685;47.196;11.880;2023-03-02T10:15:34;4.10;99.90
1383;DHT22;685;47.196;11.880;2023-03-02T10:18:10;4.20;99.90
1383;DHT22;685;47.196;11.880;2023-03-02T10:20:43;4.20;99.90
1383;DHT22;685;47.196;11.880;2023-03-02T10:23:31;4.20;99.90
1383;DHT22;685;47.196;11.880;2023-03-02T10:26:12;4.20;99.90
1383;DHT22;685;47.196;11.880;2023-03-02T10:28:44;4.20;99.90
1383;DHT22;685;47.196;11.880;2023-03-02T10:31:17;4.30;99.90
1383;DHT22;685;47.196;11.880;2023-03-02T10:33:48;4.20;99.90
1383;DHT22;685;47.196;11.880;2023-03-02T10:36:21;4.20;99.90
1383;DHT22;685;47.196;11.880;2023-03-02T10:38:49;4.30;99.90
1383;DHT22;685;47.196;11.880;2023-03-02T10:41:20;4.40;99.90
1383;DHT22;685;47.196;11.880;2023-03-02T10:43:50;4.50;99.90
1383;DHT22;685;47.196;11.880;2023-03-02T10:46:18;4.50;99.90
1383;DHT22;685;47.196;11.880;2023-03-02T10:48:49;4.50;99.90
1383;DHT22;685;47.196;11.880;2023-03-02T10:51:26;4.50;99.90
1383;DHT22;685;47.196;11.880;2023-03-02T10:54:04;4.50;99.90
1383;DHT22;685;47.196;11.880;2023-03-02T10:56:32;4.50;99.90
1383;DHT22;685;47.196;11.880;2023-03-02T10:58:59;4.60;99.90
1383;DHT22;685;47.196;11.880;2023-03-02T11:01:29;4.70;99.90
1383;DHT22;685;47.196;11.880;2023-03-02T11:03:58;4.70;99.90
1383;DHT22;685;47.196;11.880;2023-03-02T11:06:28;4.80;99.90
1383;DHT22;685;47.196;11.880;2023-03-02T11:09:00;4.80;99.90
1383;DHT22;685;47.196;11.880;2023-03-02T11:11:27;4.90;99.90
1383;DHT22;685;47.196;11.880;2023-03-02T11:13:54;4.90;99.90
1383;DHT22;685;47.196;11.880;2023-03-02T11:16:24;4.90;99.90
1383;DHT22;685;47.196;11.880;2023-03-02T11:18:56;5.00;99.90
1383;DHT22;685;47.196;11.880;2023-03-02T11:21:28;5.30;99.90
1383;DHT22;685;47.196;11.880;2023-03-02T11:23:59;5.30;99.90
1383;DHT22;685;47.196;11.880;2023-03-02T11:26:34;5.20;99.90
1383;DHT22;685;47.196;11.880;2023-03-02T11:29:05;5.20;99.90
1383;DHT22;685;47.196;11.880;2023-03-02T11:31:41;5.20;99.90
1383;DHT22;685;47.196;11.880;2023-03-02T11:34:20;5.30;99.90
1383;DHT22;685;47.196;11.880;2023-03-02T11:36:58;5.40;99.90
1383;DHT22;685;47.196;11.880;2023-03-02T11:39:31;5.40;99.90
1383;DHT22;685;47.196;11.880;2023-03-02T11:42:00;5.60;99.90
1383;DHT22;685;47.196;11.880;2023-03-02T11:44:27;5.60;99.90
1383;DHT22;685;47.196;11.880;2023-03-02T11:46:58;5.70;99.90
1383;DHT22;685;47.196;11.880;2023-03-02T11:49:35;5.70;99.90
1383;DHT22;685;47.196;11.880;2023-03-02T11:52:05;5.80;99.90
1383;DHT22;685;47.196;11.880;2023-03-02T11:54:44;5.90;99.90
1383;DHT22;685;47.196;11.880;2023-03-02T11:57:18;6.10;99.90
1383;DHT22;685;47.196;11.880;2023-03-02T11:59:47;6.10;99.90
1383;DHT22;685;47.196;11.880;2023-03-02T12:04:43;6.50;99.90
1383;DHT22;685;47.196;11.880;2023-03-02T12:07:20;6.50;99.90
1383;DHT22;685;47.196;11.880;2023-03-02T12:10:00;6.50;99.90
1383;DHT22;685;47.196;11.880;2023-03-02T12:12:39;6.60;99.90
1383;DHT22;685;47.196;11.880;2023-03-02T12:15:26;6.70;99.90
1383;DHT22;685;47.196;11.880;2023-03-02T12:17:53;6.80;99.90
1383;DHT22;685;47.196;11.880;2023-03-02T12:20:25;6.90;99.90
1383;DHT22;685;47.196;11.880;2023-03-02T12:23:06;7.10;99.90
1383;DHT22;685;47.196;11.880;2023-03-02T12:25:39;7.10;99.90
1383;DHT22;685;47.196;11.880;2023-03-02T12:28:24;6.90;99.90
1383;DHT22;685;47.196;11.880;2023-03-02T12:30:56;6.90;99.90
1383;DHT22;685;47.196;11.880;2023-03-02T12:33:23;7.00;99.90
1383;DHT22;685;47.196;11.880;2023-03-02T12:35:49;7.00;99.90
1383;DHT22;685;47.196;11.880;2023-03-02T12:38:30;7.00;99.90
1383;DHT22;685;47.196;11.880;2023-03-02T12:41:32;7.20;99.90
1383;DHT22;685;47.196;11.880;2023-03-02T12:44:22;7.10;99.90
1383;DHT22;685;47.196;11.880;2023-03-02T12:46:52;7.30;99.90
1383;DHT22;685;47.196;11.880;2023-03-02T12:49:42;7.10;99.90
1383;DHT22;685;47.196;11.880;2023-03-02T12:52:32;7.30;99.90
1383;DHT22;685;47.196;11.880;2023-03-02T12:55:06;7.40;99.90
1383;DHT22;685;47.196;11.880;2023-03-02T12:57:46;7.40;99.90
1383;DHT22;685;47.196;11.880;2023-03-02T13:00:16;7.60;99.90
1383;DHT22;685;47.196;11.880;2023-03-02T13:02:45;7.50;99.90
1383;DHT22;685;47.196;11.880;2023-03-02T13:05:17;7.60;99.90
1383;DHT22;685;47.196;11.880;2023-03-02T13:07:52;7.50;99.90
1383;DHT22;685;47.196;11.880;2023-03-02T13:10:27;7.60;99.90
1383;DHT22;685;47.196;11.880;2023-03-02T13:12:56;7.50;99.90
1383;DHT22;685;47.196;11.880;2023-03-02T13:15:23;7.60;99.90
1383;DHT22;685;47.196;11.880;2023-03-02T13:17:54;7.50;99.90
1383;DHT22;685;47.196;11.880;2023-03-02T13:20:23;7.50;99.90
1383;DHT22;685;47.196;11.880;2023-03-02T13:22:51;7.70;99.90
1383;DHT22;685;47.196;11.880;2023-03-02T13:25:24;7.70;99.90
1383;DHT22;685;47.196;11.880;2023-03-02T13:27:52;7.60;99.90
1383;DHT22;685;47.196;11.880;2023-03-02T13:30:25;7.70;99.90
1383;DHT22;685;47.196;11.880;2023-03-02T13:32:56;7.90;99.90
1383;DHT22;685;47.196;11.880;2023-03-02T13:35:27;7.80;99.90
1383;DHT22;685;47.196;11.880;2023-03-02T13:37:57;7.80;99.90
1383;DHT22;685;47.196;11.880;2023-03-02T13:40:38;7.90;99.90
1383;DHT22;685;47.196;11.880;2023-03-02T13:43:34;8.00;99.90
1383;DHT22;685;47.196;11.880;2023-03-02T13:46:03;7.70;99.90
1383;DHT22;685;47.196;11.880;2023-03-02T13:48:30;7.60;99.90
1383;DHT22;685;47.196;11.880;2023-03-02T13:51:00;7.80;99.90
1383;DHT22;685;47.196;11.880;2023-03-02T13:53:29;7.60;99.90
1383;DHT22;685;47.196;11.880;2023-03-02T13:56:00;7.80;99.90
1383;DHT22;685;47.196;11.880;2023-03-02T13:58:27;7.90;99.90
1383;DHT22;685;47.196;11.880;2023-03-02T14:00:56;7.90;99.90
1383;DHT22;685;47.196;11.880;2023-03-02T14:03:25;7.90;99.90
1383;DHT22;685;47.196;11.880;2023-03-02T14:05:53;7.80;99.90
1383;DHT22;685;47.196;11.880;2023-03-02T14:08:20;7.80;99.90
1383;DHT22;685;47.196;11.880;2023-03-02T14:10:50;7.60;99.90
1383;DHT22;685;47.196;11.880;2023-03-02T14:13:21;7.80;99.90
1383;DHT22;685;47.196;11.880;2023-03-02T14:15:51;8.00;99.90
1383;DHT22;685;47.196;11.880;2023-03-02T14:18:36;8.20;99.90
1383;DHT22;685;47.196;11.880;2023-03-02T14:21:04;8.30;99.90
1383;DHT22;685;47.196;11.880;2023-03-02T14:23:31;8.40;99.90
1383;DHT22;685;47.196;11.880;2023-03-02T14:25:58;8.50;99.90
1383;DHT22;685;47.196;11.880;2023-03-02T14:28:29;8.50;99.90
1383;DHT22;685;47.196;11.880;2023-03-02T14:30:57;8.50;99.90
1383;DHT22;685;47.196;11.880;2023-03-02T14:33:24;8.50;99.90
1383;DHT22;685;47.196;11.880;2023-03-02T14:35:53;8.50;99.90
1383;DHT22;685;47.196;11.880;2023-03-02T14:38:24;8.60;99.90
1383;DHT22;685;47.196;11.880;2023-03-02T14:40:51;8.50;99.90
1383;DHT22;685;47.196;11.880;2023-03-02T14:43:18;8.50;99.90
1383;DHT22;685;47.196;11.880;2023-03-02T14:45:47;8.50;99.90
1383;DHT22;685;47.196;11.880;2023-03-02T14:48:14;8.40;99.90
1383;DHT22;685;47.196;11.880;2023-03-02T14:50:43;8.40;99.90
1383;DHT22;685;47.196;11.880;2023-03-02T14:53:14;8.30;99.90
1383;DHT22;685;47.196;11.880;2023-03-02T14:55:42;8.30;99.90
1383;DHT22;685;47.196;11.880;2023-03-02T14:58:15;8.30;99.90
1383;DHT22;685;47.196;11.880;2023-03-02T15:00:42;8.20;99.90
1383;DHT22;685;47.196;11.880;2023-03-02T15:03:14;8.10;99.90
1383;DHT22;685;47.196;11.880;2023-03-02T15:05:41;8.00;99.90
1383;DHT22;685;47.196;11.880;2023-03-02T15:08:11;7.90;99.90
1383;DHT22;685;47.196;11.880;2023-03-02T15:10:39;7.90;99.90
1383;DHT22;685;47.196;11.880;2023-03-02T15:13:08;7.70;99.90
1383;DHT22;685;47.196;11.880;2023-03-02T15:15:35;7.60;99.90
1383;DHT22;685;47.196;11.880;2023-03-02T15:18:02;7.50;99.90
1383;DHT22;685;47.196;11.880;2023-03-02T15:20:32;7.40;99.90
1383;DHT22;685;47.196;11.880;2023-03-02T15:22:59;7.30;99.90
1383;DHT22;685;47.196;11.880;2023-03-02T15:25:26;7.10;99.90
1383;DHT22;685;47.196;11.880;2023-03-02T15:27:54;7.00;99.90
1383;DHT22;685;47.196;11.880;2023-03-02T15:30:21;6.90;99.90
1383;DHT22;685;47.196;11.880;2023-03-02T15:32:55;6.90;99.90
1383;DHT22;685;47.196;11.880;2023-03-02T15:35:23;6.80;99.90
1383;DHT22;685;47.196;11.880;2023-03-02T15:37:51;6.90;99.90
1383;DHT22;685;47.196;11.880;2023-03-02T15:40:19;6.80;99.90
1383;DHT22;685;47.196;11.880;2023-03-02T15:42:46;6.70;99.90
1383;DHT22;685;47.196;11.880;2023-03-02T15:45:13;6.70;99.90
1383;DHT22;685;47.196;11.880;2023-03-02T15:47:40;6.70;99.90
1383;DHT22;685;47.196;11.880;2023-03-02T15:50:08;6.60;99.90
1383;DHT22;685;47.196;11.880;2023-03-02T15:52:36;6.60;99.90
1383;DHT22;685;47.196;11.880;2023-03-02T15:55:04;6.50;99.90
1383;DHT22;685;47.196;11.880;2023-03-02T15:57:36;6.50;99.90
1383;DHT22;685;47.196;11.880;2023-03-02T16:00:04;6.50;99.90
1383;DHT22;685;47.196;11.880;2023-03-02T16:02:31;6.40;99.90
1383;DHT22;685;47.196;11.880;2023-03-02T16:04:58;6.30;99.90
1383;DHT22;685;47.196;11.880;2023-03-02T16:07:25;6.30;99.90
1383;DHT22;685;47.196;11.880;2023-03-02T16:09:52;6.20;99.90
1383;DHT22;685;47.196;11.880;2023-03-02T16:12:22;6.20;99.90
1383;DHT22;685;47.196;11.880;2023-03-02T16:14:49;6.20;99.90
1383;DHT22;685;47.196;11.880;2023-03-02T16:17:16;6.10;99.90
1383;DHT22;685;47.196;11.880;2023-03-02T16:19:44;6.10;99.90
1383;DHT22;685;47.196;11.880;2023-03-02T16:22:11;6.10;99.90
1383;DHT22;685;47.196;11.880;2023-03-02T16:24:38;6.00;99.90
1383;DHT22;685;47.196;11.880;2023-03-02T16:27:04;6.10;99.90
1383;DHT22;685;47.196;11.880;2023-03-02T16:29:33;6.10;99.90
1383;DHT22;685;47.196;11.880;2023-03-02T16:32:00;6.10;99.90
1383;DHT22;685;47.196;11.880;2023-03-02T16:34:27;6.00;99.90
1383;DHT22;685;47.196;11.880;2023-03-02T16:36:54;5.90;99.90
1383;DHT22;685;47.196;11.880;2023-03-02T16:39:21;5.80;99.90